首页
METAR-TAF:

METAR-TAF

机场 :

法鲁, 育康省, 加拿大

纬度: 62-12N, 经度: 133-22W, 海拔: 717米

当前天气观测

该预报发布于51分钟前的21:20 UTC
风速11节,风向东南,有时为17节阵风
温度 13°C
湿度 51%
气压 1003 hPa
能見度: 48.3公里
多云层高于5500英尺
阴天层高于8000英尺
附近有阵雨

METAR: CZFA 262120Z 13011G17KT 30SM VCSH BKN055 OVC080 13/03 A2961 RMK SC6AC2 SLP048 DENSITY ALT 3000FT

时间: 15:11 (22:11 UTC)

预报

该预报发布于4小时和31分钟前的17:40 UTC
预报有效从26日的 18点(UTC)到 26日的 22点(UTC)
风速3节,风向多变
能見度: 10公里
散云层高于12000英尺
多云层高于22000英尺
短暂存在
从 26日的 18点(UTC)到 26日的 20点(UTC)
多云层高于10000英尺
从 26日的 2000点(UTC)
风速8节,风向东南
能見度: 10公里
散云层高于4000英尺
多云层高于10000英尺
短暂存在
从 26日的 20点(UTC)到 26日的 22点(UTC)
能見度: 10公里
散云层高于2000英尺
多云层高于4000英尺
小阵雨

TAF: CZFA 261740Z 2618/2622 VRB03KT P6SM SCT120 BKN220 TEMPO 2618/2620 BKN100 FM262000 13008KT P6SM SCT040 BKN100 TEMPO 2620/2622 P6SM -SHRA SCT020 BKN040 RMK NXT FCST BY 271600Z

超过4000个机场的气象观测和天气预报(METAR&TAF报告)。

可查询的气象台以黄色和红色小点在地图上表示。

将鼠标移到小点上方,可查看气象台名称。

然后点击查看天气观测和预报。

如需切换地图:点击带黑十字的绿色按钮放大地图;点击带横线的绿色按钮缩小地图;或者点击绿色箭头查看邻近地区的地图。


METAR-TAF: